createdAt,value
2022-12-03T00:01:59.715Z,22.33
2022-12-03T00:04:21.025Z,20.43
2022-12-03T00:06:42.347Z,20.77
2022-12-03T00:09:03.680Z,21.10
2022-12-03T00:11:24.898Z,21.40
2022-12-03T00:13:46.486Z,21.00
2022-12-03T00:16:07.997Z,21.70
2022-12-03T00:18:30.803Z,22.10
2022-12-03T00:20:51.993Z,20.97
2022-12-03T00:23:13.281Z,20.23
2022-12-03T00:25:34.702Z,20.13
2022-12-03T00:27:55.729Z,20.83
2022-12-03T00:30:17.103Z,20.83
2022-12-03T00:32:38.346Z,20.20
2022-12-03T00:35:01.067Z,20.17
2022-12-03T00:37:22.896Z,21.77
2022-12-03T00:39:44.160Z,20.33
2022-12-03T00:42:05.735Z,19.13
2022-12-03T00:44:26.854Z,20.70
2022-12-03T00:46:48.181Z,20.13
2022-12-03T00:49:09.530Z,21.20
2022-12-03T00:51:32.334Z,20.93
2022-12-03T00:53:53.458Z,21.27
2022-12-03T00:56:14.673Z,19.87
2022-12-03T00:58:35.802Z,19.93
2022-12-03T01:00:57.110Z,20.10
2022-12-03T01:03:18.322Z,20.33
2022-12-03T01:05:39.927Z,19.00
2022-12-03T01:08:02.529Z,20.33
2022-12-03T01:10:23.978Z,18.37
2022-12-03T01:12:46.667Z,19.10
2022-12-03T01:15:08.780Z,19.60
2022-12-03T01:17:29.908Z,20.27
2022-12-03T01:19:52.468Z,19.30
2022-12-03T01:22:13.398Z,19.37
2022-12-03T01:24:36.022Z,18.80
2022-12-03T01:26:57.647Z,18.17
2022-12-03T01:29:18.793Z,19.17
2022-12-03T01:31:57.708Z,18.50
2022-12-03T01:34:18.875Z,19.10
2022-12-03T01:36:40.559Z,18.27
2022-12-03T01:39:02.215Z,19.07
2022-12-03T01:41:25.632Z,18.50
2022-12-03T01:43:47.010Z,18.57
2022-12-03T01:46:08.250Z,18.60
2022-12-03T01:48:31.219Z,18.57
2022-12-03T01:50:52.434Z,18.27
2022-12-03T01:53:16.598Z,18.53
2022-12-03T01:55:38.051Z,18.33
2022-12-03T01:58:01.732Z,17.57
2022-12-03T02:00:24.259Z,18.07
2022-12-03T02:02:45.731Z,18.30
2022-12-03T02:05:08.072Z,18.27
2022-12-03T02:07:30.839Z,18.37
2022-12-03T02:09:52.108Z,17.97
2022-12-03T02:12:13.600Z,17.63
2022-12-03T02:14:35.992Z,18.93
2022-12-03T02:16:57.228Z,17.70
2022-12-03T02:19:22.523Z,17.33
2022-12-03T02:21:49.322Z,17.53
2022-12-03T02:24:13.281Z,17.10
2022-12-03T02:26:35.590Z,17.03
2022-12-03T02:28:57.392Z,17.63
2022-12-03T02:31:18.789Z,17.43
2022-12-03T02:33:41.023Z,17.67
2022-12-03T02:36:03.996Z,18.40
2022-12-03T02:38:26.802Z,18.83
2022-12-03T02:40:50.275Z,19.10
2022-12-03T02:43:14.711Z,18.53
2022-12-03T02:45:38.181Z,18.50
2022-12-03T02:48:00.928Z,19.57
2022-12-03T02:50:23.585Z,19.63
2022-12-03T02:52:45.747Z,19.53
2022-12-03T02:55:08.074Z,19.97
2022-12-03T02:57:29.115Z,19.50
2022-12-03T02:59:51.988Z,18.53
2022-12-03T03:02:13.657Z,18.73
2022-12-03T03:04:35.048Z,18.43
2022-12-03T03:06:55.994Z,19.17
2022-12-03T03:09:17.171Z,20.07
2022-12-03T03:11:38.307Z,19.90
2022-12-03T03:13:59.693Z,19.07
2022-12-03T03:16:22.299Z,20.27
2022-12-03T03:18:43.494Z,19.00
2022-12-03T03:21:04.996Z,18.30
2022-12-03T03:23:26.293Z,19.27
2022-12-03T03:25:48.703Z,19.67
2022-12-03T03:28:10.098Z,20.60
2022-12-03T03:30:31.448Z,19.90
2022-12-03T03:32:53.774Z,19.33
2022-12-03T03:35:15.315Z,19.97
2022-12-03T03:37:36.551Z,19.60
2022-12-03T03:39:57.924Z,20.17
2022-12-03T03:42:19.362Z,19.57
2022-12-03T03:44:40.919Z,18.37
2022-12-03T03:47:02.170Z,18.77
2022-12-03T03:49:24.574Z,18.53
2022-12-03T03:51:45.670Z,19.10
2022-12-03T03:54:06.862Z,18.90
2022-12-03T03:56:28.043Z,19.30
2022-12-03T03:58:48.991Z,18.80
2022-12-03T04:04:38.511Z,19.90
2022-12-03T04:06:59.899Z,18.90
2022-12-03T04:09:20.861Z,18.17
2022-12-03T04:11:59.931Z,19.03
2022-12-03T04:14:21.165Z,18.27
2022-12-03T04:16:42.576Z,18.93
2022-12-03T04:19:03.683Z,18.40
2022-12-03T04:21:43.700Z,18.17
2022-12-03T04:24:05.552Z,17.00
2022-12-03T04:26:44.052Z,18.37
2022-12-03T04:29:05.566Z,18.37
2022-12-03T04:31:44.287Z,19.27
2022-12-03T04:34:23.341Z,18.43
2022-12-03T04:36:46.033Z,18.73
2022-12-03T04:39:07.464Z,18.93
2022-12-03T04:41:28.706Z,18.13
2022-12-03T04:44:03.766Z,19.00
2022-12-03T04:46:25.209Z,17.93
2022-12-03T04:48:46.335Z,17.40
2022-12-03T04:51:07.791Z,17.77
2022-12-03T04:53:30.347Z,18.60
2022-12-03T04:55:51.653Z,18.83
2022-12-03T04:58:12.930Z,18.80
2022-12-03T05:00:34.134Z,18.27
2022-12-03T05:02:55.548Z,18.97
2022-12-03T05:05:17.169Z,19.10
2022-12-03T05:07:38.173Z,18.83
2022-12-03T05:10:00.809Z,19.13
2022-12-03T05:12:21.895Z,18.67
2022-12-03T05:14:43.232Z,19.23
2022-12-03T05:17:04.486Z,19.07
2022-12-03T05:19:45.734Z,18.43
2022-12-03T05:22:05.754Z,17.13
2022-12-03T05:24:26.935Z,17.50
2022-12-03T05:26:49.595Z,18.20
2022-12-03T05:29:11.380Z,18.90
2022-12-03T05:31:32.174Z,18.20
2022-12-03T05:33:54.743Z,18.57
2022-12-03T05:36:15.813Z,18.30
2022-12-03T05:38:37.495Z,17.83
2022-12-03T05:40:58.520Z,18.60
2022-12-03T05:43:20.226Z,17.80
2022-12-03T05:45:42.580Z,17.53
2022-12-03T05:48:04.017Z,18.63
2022-12-03T05:50:26.057Z,18.20
2022-12-03T05:52:47.169Z,18.27
2022-12-03T05:55:08.911Z,18.87
2022-12-03T05:57:30.319Z,18.53
2022-12-03T05:59:52.634Z,18.83
2022-12-03T06:02:14.070Z,18.07
2022-12-03T06:04:35.221Z,18.50
2022-12-03T06:06:56.455Z,18.43
2022-12-03T06:09:17.677Z,18.87
2022-12-03T06:11:40.160Z,17.43
2022-12-03T06:14:01.260Z,17.70
2022-12-03T06:16:23.901Z,19.37
2022-12-03T06:18:45.110Z,19.00
2022-12-03T06:21:06.739Z,17.60
2022-12-03T06:23:27.642Z,19.10
2022-12-03T06:25:49.035Z,19.60
2022-12-03T06:28:10.328Z,20.30
2022-12-03T06:30:31.683Z,19.73
2022-12-03T06:32:54.196Z,19.97
2022-12-03T06:35:15.709Z,19.43
2022-12-03T06:37:36.610Z,20.17
2022-12-03T06:39:58.363Z,21.07
2022-12-03T06:42:19.538Z,20.57
2022-12-03T06:44:41.159Z,20.20
2022-12-03T06:47:02.221Z,19.70
2022-12-03T06:49:24.802Z,19.90
2022-12-03T06:51:46.175Z,21.30
2022-12-03T06:54:07.479Z,21.07
2022-12-03T06:56:35.082Z,21.50
2022-12-03T06:58:58.244Z,21.57
2022-12-03T07:01:19.602Z,22.17
2022-12-03T07:03:40.774Z,22.07
2022-12-03T07:06:03.291Z,21.13
2022-12-03T07:08:24.539Z,21.23
2022-12-03T07:10:46.274Z,22.43
2022-12-03T07:13:07.631Z,21.67
2022-12-03T07:15:29.096Z,20.57
2022-12-03T07:17:51.124Z,21.73
2022-12-03T07:20:16.235Z,20.67
2022-12-03T07:22:39.371Z,20.43
2022-12-03T07:25:00.684Z,20.50
2022-12-03T07:27:21.863Z,19.97
2022-12-03T07:29:43.267Z,19.40
2022-12-03T07:32:04.512Z,19.90
2022-12-03T07:34:25.798Z,19.33
2022-12-03T07:36:47.095Z,20.27
2022-12-03T07:39:09.742Z,19.47
2022-12-03T07:41:30.927Z,19.93
2022-12-03T07:43:52.248Z,21.60
2022-12-03T07:46:13.785Z,19.97
2022-12-03T07:48:34.914Z,19.80
2022-12-03T07:50:56.204Z,20.90
2022-12-03T07:53:17.656Z,20.47
2022-12-03T07:55:40.178Z,20.83
2022-12-03T07:58:01.623Z,21.23
2022-12-03T08:00:23.227Z,21.43
2022-12-03T08:02:44.359Z,21.20
2022-12-03T08:05:06.299Z,22.33
2022-12-03T08:07:27.476Z,20.50
2022-12-03T08:09:48.636Z,21.20
2022-12-03T08:12:16.914Z,21.43
2022-12-03T08:14:38.363Z,22.57
2022-12-03T08:16:59.686Z,23.00
2022-12-03T08:19:20.973Z,24.27
2022-12-03T08:21:42.247Z,23.23
2022-12-03T08:24:12.711Z,23.83
2022-12-03T08:26:33.582Z,23.23
2022-12-03T08:28:56.466Z,21.97
2022-12-03T08:31:19.987Z,22.00
2022-12-03T08:33:41.908Z,22.10
2022-12-03T08:36:07.169Z,21.87
2022-12-03T08:38:30.524Z,21.10
2022-12-03T08:40:52.719Z,21.50
2022-12-03T08:43:16.389Z,21.63
2022-12-03T08:45:42.581Z,20.20
2022-12-03T08:48:06.862Z,20.43
2022-12-03T08:50:29.533Z,20.03
2022-12-03T08:52:50.632Z,19.17
2022-12-03T08:55:30.060Z,20.50
2022-12-03T08:57:51.196Z,20.33
2022-12-03T09:00:22.579Z,19.50
2022-12-03T09:02:47.094Z,18.80
2022-12-03T09:05:14.331Z,19.13
2022-12-03T09:07:35.456Z,19.30
2022-12-03T09:09:56.813Z,19.07
2022-12-03T09:12:18.031Z,19.10
2022-12-03T09:14:39.272Z,18.17
2022-12-03T09:17:00.765Z,17.90
2022-12-03T09:19:23.982Z,19.17
2022-12-03T09:21:45.458Z,18.70
2022-12-03T09:24:07.283Z,18.23
2022-12-03T09:26:28.407Z,19.17
2022-12-03T09:28:49.548Z,19.03
2022-12-03T09:31:10.907Z,18.77
2022-12-03T09:33:32.656Z,18.17
2022-12-03T09:35:55.182Z,18.33
2022-12-03T09:38:16.459Z,18.23
2022-12-03T09:40:37.847Z,18.07
2022-12-03T09:42:59.215Z,18.33
2022-12-03T09:45:20.308Z,19.33
2022-12-03T09:47:42.789Z,17.97
2022-12-03T09:50:04.023Z,17.67
2022-12-03T09:52:28.249Z,18.67
2022-12-03T09:54:49.731Z,17.67
2022-12-03T09:57:12.304Z,18.83
2022-12-03T09:59:34.702Z,18.97
2022-12-03T10:01:55.877Z,17.83
2022-12-03T10:04:17.745Z,19.50
2022-12-03T10:06:45.245Z,18.87
2022-12-03T10:09:12.558Z,16.87
2022-12-03T10:11:35.259Z,16.87
2022-12-03T10:13:57.381Z,16.80
2022-12-03T10:16:20.855Z,17.63
2022-12-03T10:18:43.462Z,17.77
2022-12-03T10:21:04.735Z,16.90
2022-12-03T10:23:27.602Z,17.03
2022-12-03T10:25:54.894Z,17.37
2022-12-03T10:28:27.697Z,16.30
2022-12-03T10:30:54.579Z,16.23
2022-12-03T10:33:18.810Z,15.77
2022-12-03T10:35:41.776Z,17.13
2022-12-03T10:38:03.286Z,16.07
2022-12-03T10:40:25.351Z,15.53
2022-12-03T10:42:47.819Z,15.20
2022-12-03T10:45:17.183Z,15.80
2022-12-03T10:47:38.178Z,15.20
2022-12-03T10:50:02.747Z,14.83
2022-12-03T10:52:26.102Z,15.37
2022-12-03T10:54:47.996Z,15.67
2022-12-03T10:57:10.159Z,14.07
2022-12-03T10:59:35.108Z,15.30
2022-12-03T11:01:56.421Z,15.00
2022-12-03T11:04:22.089Z,13.77
2022-12-03T11:06:43.231Z,14.10
2022-12-03T11:09:09.110Z,14.60
2022-12-03T11:11:31.724Z,13.90
2022-12-03T11:13:53.357Z,13.93
2022-12-03T11:16:16.078Z,13.97
2022-12-03T11:18:56.116Z,15.27
2022-12-03T11:21:17.393Z,13.77
2022-12-03T11:23:57.131Z,13.70
2022-12-03T11:26:19.995Z,13.53
2022-12-03T11:28:55.787Z,13.80
2022-12-03T11:31:31.831Z,14.10
2022-12-03T11:34:14.207Z,13.33
2022-12-03T11:37:00.277Z,14.10
2022-12-03T11:39:36.341Z,13.20
2022-12-03T11:42:12.317Z,13.47
2022-12-03T11:44:33.678Z,13.83
2022-12-03T11:46:55.281Z,13.23
2022-12-03T11:49:35.617Z,14.10
2022-12-03T11:51:58.828Z,13.93
2022-12-03T11:54:22.415Z,14.60
2022-12-03T11:56:46.117Z,14.23
2022-12-03T11:59:13.277Z,14.03
2022-12-03T12:01:38.608Z,15.50
2022-12-03T12:04:00.645Z,14.67
2022-12-03T12:06:22.054Z,14.33
2022-12-03T12:08:56.464Z,15.60
2022-12-03T12:11:18.657Z,15.20
2022-12-03T12:13:57.109Z,15.57
2022-12-03T12:16:38.098Z,15.57
2022-12-03T12:18:58.929Z,15.43
2022-12-03T12:21:39.182Z,15.60
2022-12-03T12:24:15.001Z,14.50
2022-12-03T12:26:37.455Z,15.43
2022-12-03T12:28:58.825Z,15.37
2022-12-03T12:31:20.187Z,15.27
2022-12-03T12:33:41.459Z,16.50
2022-12-03T12:36:06.528Z,15.53
2022-12-03T12:38:29.212Z,15.97
2022-12-03T12:40:50.929Z,15.30
2022-12-03T12:43:23.318Z,15.67
2022-12-03T12:45:45.231Z,16.33
2022-12-03T12:48:11.676Z,15.43
2022-12-03T12:50:33.976Z,17.13
2022-12-03T12:52:56.102Z,15.27
2022-12-03T12:55:19.944Z,15.97
2022-12-03T12:57:41.127Z,15.83
2022-12-03T13:00:05.524Z,16.27
2022-12-03T13:02:42.823Z,16.20
2022-12-03T13:05:04.795Z,16.70
2022-12-03T13:07:26.863Z,16.67
2022-12-03T13:09:51.387Z,15.20
2022-12-03T13:12:20.503Z,16.57
2022-12-03T13:14:41.640Z,16.93
2022-12-03T13:17:12.076Z,15.73
2022-12-03T13:19:46.625Z,16.40
2022-12-03T13:22:12.812Z,16.53
2022-12-03T13:24:35.076Z,15.73
2022-12-03T13:26:56.364Z,16.60
2022-12-03T13:29:19.551Z,16.80
2022-12-03T13:31:44.096Z,17.60
2022-12-03T13:34:12.771Z,17.30
2022-12-03T13:36:37.843Z,17.20
2022-12-03T13:38:59.504Z,16.13
2022-12-03T13:41:39.186Z,16.73
2022-12-03T13:44:00.568Z,16.83
2022-12-03T13:46:21.711Z,15.93
2022-12-03T13:48:44.907Z,15.90
2022-12-03T13:51:14.598Z,17.23
2022-12-03T13:53:37.830Z,16.00
2022-12-03T13:56:04.389Z,16.70
2022-12-03T13:58:25.500Z,15.83
2022-12-03T14:00:47.227Z,15.87
2022-12-03T14:03:08.509Z,15.47
2022-12-03T14:05:29.775Z,14.93
2022-12-03T14:07:52.257Z,14.90
2022-12-03T14:10:13.858Z,13.87
2022-12-03T14:12:37.977Z,14.93
2022-12-03T14:14:59.298Z,15.07
2022-12-03T14:17:20.714Z,15.13
2022-12-03T14:19:41.998Z,15.27
2022-12-03T14:22:03.504Z,14.73
2022-12-03T14:24:25.860Z,15.37
2022-12-03T14:26:46.948Z,15.47
2022-12-03T14:29:09.104Z,14.90
2022-12-03T14:31:31.352Z,15.13
2022-12-03T14:33:52.557Z,14.23
2022-12-03T14:36:13.852Z,14.47
2022-12-03T14:38:35.093Z,14.30
2022-12-03T14:40:57.700Z,14.57
2022-12-03T14:43:18.952Z,14.10
2022-12-03T14:45:40.266Z,14.40
2022-12-03T14:48:01.414Z,14.27
2022-12-03T14:50:22.747Z,13.97
2022-12-03T14:52:43.997Z,13.90
2022-12-03T14:55:05.965Z,13.83
2022-12-03T14:57:28.521Z,14.07
2022-12-03T14:59:49.564Z,12.83
2022-12-03T15:02:11.769Z,14.13
2022-12-03T15:04:33.018Z,14.20
2022-12-03T15:06:54.324Z,14.73
2022-12-03T15:09:15.555Z,13.53
2022-12-03T15:11:40.253Z,13.87
2022-12-03T15:14:08.292Z,14.40
2022-12-03T15:16:29.521Z,13.27
2022-12-03T15:18:50.734Z,13.30
2022-12-03T15:21:12.183Z,12.70
2022-12-03T15:23:33.723Z,13.40
2022-12-03T15:25:55.066Z,14.20
2022-12-03T15:28:16.520Z,13.60
2022-12-03T15:30:39.121Z,13.30
2022-12-03T15:33:00.388Z,13.70
2022-12-03T15:35:21.587Z,13.97
2022-12-03T15:37:42.748Z,13.70
2022-12-03T15:40:04.160Z,14.67
2022-12-03T15:42:25.345Z,13.67
2022-12-03T15:44:46.523Z,13.53
2022-12-03T15:47:09.246Z,14.07
2022-12-03T15:49:30.229Z,13.83
2022-12-03T15:51:51.650Z,13.57
2022-12-03T15:54:13.232Z,14.37
2022-12-03T15:56:37.384Z,14.93
2022-12-03T15:58:58.957Z,15.13
2022-12-03T16:01:20.548Z,13.80
2022-12-03T16:03:43.192Z,14.63
2022-12-03T16:06:04.566Z,14.57
2022-12-03T16:08:25.700Z,15.10
2022-12-03T16:10:47.459Z,15.63
2022-12-03T16:13:08.691Z,15.17
2022-12-03T16:15:30.109Z,15.20
2022-12-03T16:17:51.179Z,15.37
2022-12-03T16:20:14.039Z,15.23
2022-12-03T16:22:35.347Z,15.87
2022-12-03T16:24:56.647Z,16.10
2022-12-03T16:27:21.586Z,15.70
2022-12-03T16:29:45.212Z,15.83
2022-12-03T16:32:06.676Z,16.20
2022-12-03T16:34:28.092Z,16.73
2022-12-03T16:36:50.598Z,16.30
2022-12-03T16:39:11.898Z,16.37
2022-12-03T16:41:33.272Z,15.50
2022-12-03T16:43:54.431Z,16.73
2022-12-03T16:46:25.807Z,17.20
2022-12-03T16:48:47.722Z,15.97
2022-12-03T16:51:08.654Z,17.87
2022-12-03T16:53:31.575Z,17.93
2022-12-03T16:55:52.770Z,17.77
2022-12-03T16:58:14.268Z,17.27
2022-12-03T17:00:35.383Z,18.33
2022-12-03T17:02:56.659Z,17.40
2022-12-03T17:05:18.346Z,17.20
2022-12-03T17:07:39.540Z,16.77
2022-12-03T17:10:02.290Z,17.37
2022-12-03T17:12:25.427Z,17.17
2022-12-03T17:14:46.920Z,18.03
2022-12-03T17:17:08.279Z,17.57
2022-12-03T17:19:29.719Z,17.97
2022-12-03T17:21:50.981Z,17.00
2022-12-03T17:24:12.423Z,17.60
2022-12-03T17:26:35.073Z,17.20
2022-12-03T17:28:56.343Z,17.80
2022-12-03T17:31:17.533Z,17.03
2022-12-03T17:33:38.844Z,18.17
2022-12-03T17:35:59.878Z,17.03
2022-12-03T17:38:21.226Z,17.23
2022-12-03T17:40:42.323Z,17.10
2022-12-03T17:43:05.136Z,17.17
2022-12-03T17:45:26.444Z,16.83
2022-12-03T17:47:47.847Z,16.67
2022-12-03T17:50:09.793Z,16.77
2022-12-03T17:52:31.369Z,15.17
2022-12-03T17:55:10.417Z,16.87
2022-12-03T17:57:33.379Z,15.87
2022-12-03T17:59:56.111Z,15.43
2022-12-03T18:02:17.615Z,16.00
2022-12-03T18:04:38.742Z,15.90
2022-12-03T18:07:02.349Z,16.43
2022-12-03T18:09:24.249Z,16.67
2022-12-03T18:11:45.679Z,15.63
2022-12-03T18:14:07.101Z,15.33
2022-12-03T18:16:29.936Z,16.17
2022-12-03T18:18:55.129Z,15.27
2022-12-03T18:21:18.528Z,17.27
2022-12-03T18:23:40.046Z,16.00
2022-12-03T18:26:01.984Z,16.77
2022-12-03T18:28:23.099Z,16.03
2022-12-03T18:30:47.625Z,17.90
2022-12-03T18:33:15.552Z,16.53
2022-12-03T18:35:36.750Z,16.57
2022-12-03T18:37:58.236Z,15.80
2022-12-03T18:40:21.808Z,16.70
2022-12-03T18:42:43.281Z,15.73
2022-12-03T18:45:07.543Z,17.33
2022-12-03T18:47:29.920Z,15.47
2022-12-03T18:49:52.719Z,15.47
2022-12-03T18:52:14.157Z,14.57
2022-12-03T18:54:35.327Z,14.37
2022-12-03T18:56:56.617Z,15.33
2022-12-03T18:59:17.720Z,14.83
2022-12-03T19:01:39.067Z,15.23
2022-12-03T19:04:00.399Z,13.57
2022-12-03T19:06:23.041Z,13.83
2022-12-03T19:08:45.075Z,13.73
2022-12-03T19:11:06.456Z,14.80
2022-12-03T19:13:28.457Z,14.23
2022-12-03T19:15:50.484Z,14.33
2022-12-03T19:18:11.841Z,14.20
2022-12-03T19:20:33.102Z,14.57
2022-12-03T19:22:55.674Z,14.37
2022-12-03T19:25:16.928Z,14.37
2022-12-03T19:27:38.194Z,14.00
2022-12-03T19:29:59.739Z,15.07
2022-12-03T19:32:20.624Z,14.17
2022-12-03T19:34:41.881Z,15.73
2022-12-03T19:37:03.087Z,15.53
2022-12-03T19:39:25.860Z,15.73
2022-12-03T19:41:47.238Z,15.67
2022-12-03T19:44:11.053Z,16.23
2022-12-03T19:46:32.626Z,17.73
2022-12-03T19:48:54.631Z,17.17
2022-12-03T19:51:33.541Z,15.60
2022-12-03T19:53:56.404Z,16.53
2022-12-03T19:56:19.830Z,17.57
2022-12-03T19:58:41.611Z,16.93
2022-12-03T20:01:06.884Z,17.10
2022-12-03T20:03:28.168Z,17.10
2022-12-03T20:05:50.318Z,17.43
2022-12-03T20:08:11.553Z,17.40
2022-12-03T20:10:33.560Z,16.87
2022-12-03T20:12:56.099Z,18.03
2022-12-03T20:15:17.363Z,17.80
2022-12-03T20:17:38.376Z,18.43
2022-12-03T20:19:59.770Z,18.10
2022-12-03T20:22:20.995Z,17.83
2022-12-03T20:24:42.202Z,18.57
2022-12-03T20:27:03.505Z,17.90
2022-12-03T20:29:25.962Z,17.70
2022-12-03T20:31:47.438Z,17.33
2022-12-03T20:34:08.774Z,17.93
2022-12-03T20:36:31.579Z,18.23
2022-12-03T20:38:54.492Z,18.97
2022-12-03T20:41:17.162Z,19.10
2022-12-03T20:43:38.423Z,19.10
2022-12-03T20:46:08.477Z,20.00
2022-12-03T20:48:29.770Z,19.33
2022-12-03T20:50:51.303Z,20.83
2022-12-03T20:53:27.415Z,20.13
2022-12-03T20:55:55.617Z,19.60
2022-12-03T20:58:16.634Z,20.07
2022-12-03T21:00:37.717Z,19.77
2022-12-03T21:03:00.275Z,18.87
2022-12-03T21:05:21.671Z,18.80
2022-12-03T21:07:42.795Z,19.03
2022-12-03T21:10:04.293Z,18.90
2022-12-03T21:12:26.612Z,19.27
2022-12-03T21:14:48.018Z,19.87
2022-12-03T21:17:09.844Z,19.17
2022-12-03T21:19:32.713Z,18.70
2022-12-03T21:21:54.075Z,19.67
2022-12-03T21:24:15.760Z,18.80
2022-12-03T21:26:36.866Z,19.27
2022-12-03T21:28:58.158Z,19.83
2022-12-03T21:31:20.862Z,22.13
2022-12-03T21:33:42.484Z,18.73
2022-12-03T21:36:05.623Z,19.73
2022-12-03T21:38:27.748Z,20.30
2022-12-03T21:40:49.012Z,20.23
2022-12-03T21:43:10.364Z,21.40
2022-12-03T21:45:31.723Z,22.20
2022-12-03T21:47:53.046Z,20.57
2022-12-03T21:50:14.495Z,20.47
2022-12-03T21:52:37.231Z,20.10
2022-12-03T21:54:58.514Z,20.50
2022-12-03T21:57:19.705Z,21.27
2022-12-03T21:59:40.825Z,22.07
2022-12-03T22:02:02.167Z,21.93
2022-12-03T22:04:23.227Z,19.93
2022-12-03T22:06:44.459Z,20.50
2022-12-03T22:09:07.180Z,21.40
2022-12-03T22:11:28.618Z,22.53
2022-12-03T22:13:50.179Z,22.20
2022-12-03T22:16:12.070Z,21.70
2022-12-03T22:18:33.996Z,22.53
2022-12-03T22:20:55.069Z,20.57
2022-12-03T22:23:16.505Z,22.50
2022-12-03T22:25:39.256Z,22.17
2022-12-03T22:28:00.675Z,20.47
2022-12-03T22:30:22.077Z,21.20
2022-12-03T22:32:43.531Z,22.43
2022-12-03T22:35:04.814Z,22.60
2022-12-03T22:37:25.897Z,24.10
2022-12-03T22:39:47.055Z,21.87
2022-12-03T22:42:09.799Z,22.27
2022-12-03T22:44:30.863Z,21.83
2022-12-03T22:46:52.189Z,21.57
2022-12-03T22:49:13.582Z,21.20
2022-12-03T22:51:34.575Z,22.87
2022-12-03T22:53:56.552Z,23.47
2022-12-03T22:56:17.867Z,23.13
2022-12-03T22:58:41.226Z,23.63
2022-12-03T23:01:03.078Z,22.67
2022-12-03T23:03:24.962Z,22.93
2022-12-03T23:05:46.440Z,22.73
2022-12-03T23:08:08.861Z,23.47
2022-12-03T23:10:33.956Z,23.50
2022-12-03T23:12:55.347Z,24.73
2022-12-03T23:15:17.938Z,23.90
2022-12-03T23:17:39.240Z,23.60
2022-12-03T23:20:00.536Z,21.67
2022-12-03T23:22:22.015Z,23.37
2022-12-03T23:24:43.324Z,23.23
2022-12-03T23:27:04.654Z,22.97
2022-12-03T23:29:25.927Z,23.80
2022-12-03T23:31:48.840Z,22.97
2022-12-03T23:34:10.043Z,23.80
2022-12-03T23:36:31.656Z,21.10
2022-12-03T23:38:52.738Z,21.87
2022-12-03T23:41:15.215Z,23.57
2022-12-03T23:43:36.401Z,22.30
2022-12-03T23:46:03.728Z,22.87
2022-12-03T23:48:26.148Z,23.70
2022-12-03T23:50:47.358Z,23.73
2022-12-03T23:53:08.963Z,23.03
2022-12-03T23:55:29.988Z,21.87
2022-12-03T23:57:51.277Z,22.37
